createdAt,value
2023-04-05T00:08:34.715Z,79.39
2023-04-05T00:18:39.843Z,80.64
2023-04-05T00:28:42.452Z,81.08
2023-04-05T00:38:48.295Z,80.80
2023-04-05T00:48:51.075Z,81.15
2023-04-05T00:58:55.680Z,81.28
2023-04-05T01:09:05.660Z,82.24
2023-04-05T01:19:09.995Z,81.88
2023-04-05T01:30:04.057Z,82.26
2023-04-05T01:40:09.734Z,86.17
2023-04-05T01:50:12.428Z,86.16
2023-04-05T02:00:17.264Z,84.26
2023-04-05T02:10:20.976Z,85.08
2023-04-05T02:20:25.816Z,84.74
2023-04-05T02:30:29.138Z,84.70
2023-04-05T02:40:33.697Z,85.09
2023-04-05T02:50:36.456Z,84.42
2023-04-05T03:00:40.732Z,84.27
2023-04-05T03:10:45.020Z,84.40
2023-04-05T03:20:49.901Z,84.62
2023-04-05T03:30:52.930Z,84.40
2023-04-05T03:40:56.928Z,83.99
2023-04-05T03:50:59.589Z,84.51
2023-04-05T04:01:03.883Z,84.94
2023-04-05T04:11:07.220Z,85.00
2023-04-05T04:21:11.588Z,85.26
2023-04-05T04:31:14.411Z,85.45
2023-04-05T04:41:20.066Z,85.58
2023-04-05T04:51:22.832Z,85.10
2023-04-05T05:01:26.966Z,85.16
2023-04-05T05:11:29.842Z,85.16
2023-04-05T05:21:33.793Z,85.28
2023-04-05T05:31:36.504Z,85.45
2023-04-05T05:41:40.571Z,85.03
2023-04-05T05:51:43.237Z,85.36
2023-04-05T06:01:47.446Z,85.79
2023-04-05T06:11:56.330Z,85.86
2023-04-05T06:22:01.310Z,85.60
2023-04-05T06:32:04.136Z,85.48
2023-04-05T06:42:08.412Z,84.26
2023-04-05T06:52:11.145Z,83.65
2023-04-05T07:02:15.454Z,82.20
2023-04-05T07:12:18.167Z,81.06
2023-04-05T07:22:22.160Z,79.42
2023-04-05T07:32:24.938Z,78.46
2023-04-05T07:42:28.960Z,77.58
2023-04-05T07:52:31.567Z,74.54
2023-04-05T08:02:35.624Z,69.94
2023-04-05T08:12:38.998Z,69.55
2023-04-05T08:22:43.168Z,59.34
2023-04-05T08:32:45.815Z,60.71
2023-04-05T08:42:58.181Z,61.12
2023-04-05T08:53:00.966Z,57.06
2023-04-05T09:03:06.021Z,53.84
2023-04-05T09:13:12.478Z,51.50
2023-04-05T09:23:16.529Z,49.44
2023-04-05T09:33:20.972Z,47.79
2023-04-05T09:43:43.176Z,45.03
2023-04-05T09:53:59.329Z,43.83
2023-04-05T10:04:03.754Z,39.75
2023-04-05T10:14:08.146Z,41.44
2023-04-05T10:24:22.574Z,35.52
2023-04-05T10:34:32.270Z,40.53
2023-04-05T10:44:38.421Z,40.11
2023-04-05T10:54:41.797Z,39.43
2023-04-05T11:04:45.906Z,37.49
2023-04-05T11:14:48.631Z,37.40
2023-04-05T11:24:55.039Z,37.57
2023-04-05T11:35:02.111Z,16.25
2023-04-05T11:45:07.137Z,14.23
2023-04-05T11:55:11.670Z,10.82
2023-04-05T12:05:16.181Z,9.42
2023-04-05T12:15:19.281Z,7.66
2023-04-05T12:25:25.072Z,9.11
2023-04-05T12:35:32.685Z,7.95
2023-04-05T12:45:41.820Z,8.49
2023-04-05T12:55:49.892Z,7.80
2023-04-05T13:05:54.116Z,8.91
2023-04-05T13:15:56.876Z,10.19
2023-04-05T13:26:01.353Z,13.36
2023-04-05T13:36:04.196Z,16.39
2023-04-05T13:46:08.508Z,16.97
2023-04-05T13:56:11.158Z,15.10
2023-04-05T14:06:15.121Z,16.99
2023-04-05T14:16:17.996Z,18.39
2023-04-05T14:26:22.294Z,18.19
2023-04-05T14:36:26.314Z,18.46
2023-04-05T14:46:30.520Z,20.88
2023-04-05T14:56:33.351Z,21.22
2023-04-05T15:06:37.606Z,20.37
2023-04-05T15:16:40.340Z,20.49
2023-04-05T15:26:44.416Z,22.79
2023-04-05T15:36:47.093Z,24.04
2023-04-05T15:46:51.349Z,25.64
2023-04-05T15:56:54.231Z,25.92
2023-04-05T16:06:58.347Z,27.38
2023-04-05T16:17:03.992Z,28.11
2023-04-05T16:27:08.052Z,26.29
2023-04-05T16:37:10.766Z,27.76
2023-04-05T16:47:14.847Z,29.10
2023-04-05T16:57:17.513Z,30.24
2023-04-05T17:07:21.606Z,30.18
2023-04-05T17:17:24.291Z,31.40
2023-04-05T17:27:28.499Z,32.00
2023-04-05T17:37:31.158Z,32.92
2023-04-05T17:47:35.784Z,34.39
2023-04-05T17:57:38.615Z,34.48
2023-04-05T18:07:43.290Z,34.96
2023-04-05T18:17:46.158Z,35.68
2023-04-05T18:27:50.173Z,38.72
2023-04-05T18:37:52.849Z,44.42
2023-04-05T18:47:57.110Z,46.71
2023-04-05T18:57:59.937Z,48.86
2023-04-05T19:08:04.034Z,49.25
2023-04-05T19:18:06.902Z,50.59
2023-04-05T19:28:11.163Z,52.20
2023-04-05T19:38:13.903Z,51.30
2023-04-05T19:48:36.932Z,51.55
2023-04-05T19:58:39.901Z,52.61
2023-04-05T20:08:45.730Z,52.65
2023-04-05T20:18:49.458Z,53.71
2023-04-05T20:28:54.785Z,55.44
2023-04-05T20:38:57.565Z,57.27
2023-04-05T20:49:01.789Z,59.18
2023-04-05T20:59:04.562Z,58.52
2023-04-05T21:09:08.931Z,59.56
2023-04-05T21:19:11.948Z,63.59
2023-04-05T21:29:16.415Z,63.10
2023-04-05T21:39:19.238Z,65.17
2023-04-05T21:49:25.536Z,67.20
2023-04-05T21:59:28.358Z,66.52
2023-04-05T22:09:32.663Z,68.60
2023-04-05T22:19:35.607Z,68.00
2023-04-05T22:29:40.389Z,70.29
2023-04-05T22:39:43.149Z,73.82
2023-04-05T22:49:47.328Z,72.93
2023-04-05T22:59:50.063Z,72.83
2023-04-05T23:09:54.336Z,74.17
2023-04-05T23:19:57.070Z,76.19
2023-04-05T23:30:01.732Z,75.89
2023-04-05T23:40:04.905Z,76.51
2023-04-05T23:50:11.200Z,78.07
